createdAt,value
2018-03-04T00:08:28.912Z,-6.20
2018-03-04T00:10:56.595Z,-6.20
2018-03-04T00:13:24.167Z,-6.20
2018-03-04T00:15:55.109Z,-6.20
2018-03-04T00:18:22.705Z,-6.20
2018-03-04T00:20:50.446Z,-6.20
2018-03-04T00:26:25.549Z,-6.20
2018-03-04T00:28:54.077Z,-6.30
2018-03-04T00:39:40.484Z,-6.30
2018-03-04T00:48:40.644Z,-6.40
2018-03-04T00:51:13.985Z,-6.40
2018-03-04T00:53:57.460Z,-6.40
2018-03-04T00:56:56.384Z,-6.40
2018-03-04T01:14:20.592Z,-6.60
2018-03-04T01:16:49.154Z,-6.50
2018-03-04T01:19:16.956Z,-6.50
2018-03-04T01:21:44.824Z,-6.50
2018-03-04T01:24:17.192Z,-6.50
2018-03-04T01:26:44.940Z,-6.50
2018-03-04T01:29:13.505Z,-6.50
2018-03-04T01:31:41.204Z,-6.50
2018-03-04T01:34:09.736Z,-6.60
2018-03-04T01:36:39.325Z,-6.60
2018-03-04T01:39:07.907Z,-6.60
2018-03-04T01:41:35.699Z,-6.70
2018-03-04T01:44:07.707Z,-6.60
2018-03-04T01:46:35.879Z,-6.60
2018-03-04T01:49:04.927Z,-6.60
2018-03-04T01:51:44.527Z,-6.60
2018-03-04T01:54:13.100Z,-6.60
2018-03-04T01:56:43.831Z,-6.60
2018-03-04T01:59:13.730Z,-6.60
2018-03-04T02:01:44.404Z,-6.70
2018-03-04T02:04:26.382Z,-6.70
2018-03-04T02:06:54.969Z,-6.60
2018-03-04T02:09:23.863Z,-6.60
2018-03-04T02:12:00.365Z,-6.60
2018-03-04T02:17:10.566Z,-6.70
2018-03-04T02:20:02.148Z,-6.70
2018-03-04T02:22:31.756Z,-6.70
2018-03-04T02:25:06.457Z,-6.60
2018-03-04T02:33:40.471Z,-6.70
2018-03-04T02:38:51.262Z,-6.80
2018-03-04T02:41:41.263Z,-6.80
2018-03-04T02:47:36.079Z,-6.80
2018-03-04T03:12:47.912Z,-6.90
2018-03-04T04:03:20.280Z,-7.10
2018-03-04T04:05:48.310Z,-7.10
2018-03-04T04:14:02.813Z,-6.80
2018-03-04T04:16:33.339Z,-6.80
2018-03-04T04:19:02.703Z,-6.70
2018-03-04T04:24:06.735Z,-6.20
2018-03-04T04:26:36.258Z,-6.20
2018-03-04T04:29:04.770Z,-6.10
2018-03-04T04:31:33.741Z,-6.10
2018-03-04T04:34:01.362Z,-6.00
2018-03-04T04:36:30.860Z,-6.00
2018-03-04T04:38:58.490Z,-5.90
2018-03-04T04:41:26.222Z,-6.00
2018-03-04T04:43:53.829Z,-5.90
2018-03-04T04:46:21.465Z,-5.90
2018-03-04T04:48:55.667Z,-5.80
2018-03-04T04:51:47.819Z,-5.80
2018-03-04T05:51:09.104Z,-6.30
2018-03-04T05:53:36.680Z,-6.30
2018-03-04T05:56:04.808Z,-6.30
2018-03-04T05:58:32.333Z,-6.30
2018-03-04T06:00:59.899Z,-6.30
2018-03-04T06:03:27.409Z,-6.30
2018-03-04T06:05:56.575Z,-6.30
2018-03-04T06:08:24.985Z,-6.20
2018-03-04T06:10:52.494Z,-6.20
2018-03-04T06:13:20.016Z,-6.20
2018-03-04T06:15:47.557Z,-6.30
2018-03-04T06:18:15.259Z,-6.30
2018-03-04T06:20:42.910Z,-6.30
2018-03-04T06:23:11.038Z,-6.30
2018-03-04T06:25:38.770Z,-6.20
2018-03-04T06:28:06.233Z,-6.30
2018-03-04T06:30:33.718Z,-6.30
2018-03-04T06:33:02.071Z,-6.10
2018-03-04T06:35:30.418Z,-5.90
2018-03-04T06:37:57.901Z,-6.00
2018-03-04T06:40:25.387Z,-5.90
2018-03-04T06:42:53.660Z,-5.70
2018-03-04T06:45:21.160Z,-5.70
2018-03-04T06:47:48.635Z,-5.70
2018-03-04T06:50:16.130Z,-5.80
2018-03-04T06:52:44.367Z,-5.60
2018-03-04T06:55:11.846Z,-5.60
2018-03-04T06:57:39.311Z,-5.60
2018-03-04T07:00:06.815Z,-5.50
2018-03-04T07:02:34.311Z,-5.40
2018-03-04T07:05:01.805Z,-5.20
2018-03-04T07:07:29.291Z,-5.20
2018-03-04T07:09:56.775Z,-5.10
2018-03-04T07:12:24.285Z,-4.90
2018-03-04T07:14:51.770Z,-4.80
2018-03-04T07:17:19.280Z,-4.80
2018-03-04T07:19:46.776Z,-4.70
2018-03-04T07:22:14.245Z,-4.60
2018-03-04T07:24:41.745Z,-4.60
2018-03-04T07:27:09.205Z,-4.50
2018-03-04T07:29:36.681Z,-4.40
2018-03-04T07:32:04.174Z,-4.30
2018-03-04T07:34:31.646Z,-4.20
2018-03-04T07:36:59.106Z,-4.30
2018-03-04T07:39:26.691Z,-4.20
2018-03-04T07:41:54.958Z,-4.00
2018-03-04T07:44:22.555Z,-4.00
2018-03-04T07:46:50.832Z,-3.90
2018-03-04T07:49:18.335Z,-3.90
2018-03-04T07:51:45.807Z,-3.90
2018-03-04T07:54:13.379Z,-3.80
2018-03-04T07:56:40.852Z,-3.70
2018-03-04T07:59:08.344Z,-3.50
2018-03-04T08:01:35.839Z,-3.50
2018-03-04T08:04:03.310Z,-3.40
2018-03-04T08:06:30.838Z,-3.40
2018-03-04T08:08:58.339Z,-3.20
2018-03-04T08:11:25.836Z,-3.10
2018-03-04T08:13:53.346Z,-3.10
2018-03-04T08:16:20.844Z,-2.90
2018-03-04T08:18:48.322Z,-2.80
2018-03-04T08:21:15.824Z,-2.80
2018-03-04T08:23:43.336Z,-2.60
2018-03-04T08:26:22.616Z,-2.50
2018-03-04T08:28:50.121Z,-2.60
2018-03-04T08:31:17.606Z,-2.40
2018-03-04T08:33:45.086Z,-2.20
2018-03-04T08:36:12.692Z,-2.20
2018-03-04T08:38:40.193Z,-2.30
2018-03-04T08:41:07.673Z,-2.30
2018-03-04T08:43:35.144Z,-2.30
2018-03-04T08:46:02.655Z,-2.10
2018-03-04T08:48:30.157Z,-2.20
2018-03-04T08:50:57.690Z,-1.90
2018-03-04T08:53:25.276Z,-1.80
2018-03-04T08:55:52.733Z,-1.70
2018-03-04T08:58:20.276Z,-1.60
2018-03-04T09:00:48.569Z,-1.70
2018-03-04T09:03:16.055Z,-1.70
2018-03-04T09:05:43.617Z,-1.60
2018-03-04T09:08:11.103Z,-1.50
2018-03-04T09:10:38.571Z,-1.60
2018-03-04T09:13:06.807Z,-1.40
2018-03-04T09:15:34.292Z,-1.40
2018-03-04T09:18:01.793Z,-1.40
2018-03-04T09:20:30.084Z,-1.30
2018-03-04T09:22:57.580Z,-1.30
2018-03-04T09:25:25.463Z,-1.00
2018-03-04T09:27:52.999Z,-1.00
2018-03-04T09:30:20.475Z,-0.90
2018-03-04T09:32:47.941Z,-0.80
2018-03-04T09:35:16.175Z,-0.70
2018-03-04T09:37:43.664Z,-0.70
2018-03-04T09:40:11.208Z,-0.80
2018-03-04T09:42:38.678Z,-0.80
2018-03-04T09:45:07.124Z,-0.50
2018-03-04T09:47:34.645Z,-0.60
2018-03-04T09:50:02.136Z,-0.50
2018-03-04T09:52:29.617Z,-0.50
2018-03-04T09:54:57.094Z,-0.50
2018-03-04T09:57:24.576Z,-0.50
2018-03-04T09:59:52.034Z,-0.60
2018-03-04T10:02:19.530Z,-0.60
2018-03-04T10:04:47.023Z,-0.60
2018-03-04T10:07:14.733Z,-0.50
2018-03-04T10:09:42.218Z,-0.30
2018-03-04T10:12:09.715Z,-0.20
2018-03-04T10:14:37.205Z,-0.10
2018-03-04T10:17:04.672Z,0.10
2018-03-04T10:19:32.172Z,0.40
2018-03-04T10:22:00.413Z,0.90
2018-03-04T10:24:27.930Z,0.90
2018-03-04T10:26:55.440Z,1.10
2018-03-04T10:29:22.949Z,1.30
2018-03-04T10:31:51.815Z,1.40
2018-03-04T10:34:19.557Z,1.20
2018-03-04T10:36:47.042Z,1.30
2018-03-04T10:39:15.278Z,1.30
2018-03-04T10:41:42.743Z,1.30
2018-03-04T10:44:10.754Z,1.30
2018-03-04T10:46:38.250Z,1.10
2018-03-04T10:49:05.748Z,1.00
2018-03-04T10:51:33.306Z,0.80
2018-03-04T10:54:00.770Z,0.60
2018-03-04T10:56:28.272Z,0.60
2018-03-04T10:58:55.726Z,0.50
2018-03-04T11:01:28.137Z,0.70
2018-03-04T11:03:56.436Z,0.70
2018-03-04T11:06:24.922Z,0.90
2018-03-04T11:08:52.464Z,0.90
2018-03-04T11:11:20.011Z,1.00
2018-03-04T11:13:47.571Z,1.00
2018-03-04T11:16:15.038Z,1.10
2018-03-04T11:18:42.494Z,1.10
2018-03-04T11:21:10.722Z,1.10
2018-03-04T11:23:38.181Z,1.10
2018-03-04T11:26:05.646Z,1.00
2018-03-04T11:28:33.149Z,0.90
2018-03-04T11:31:00.615Z,0.70
2018-03-04T11:33:28.080Z,0.60
2018-03-04T11:35:55.534Z,0.60
2018-03-04T11:38:22.997Z,0.40
2018-03-04T11:40:52.166Z,0.50
2018-03-04T11:43:20.404Z,0.50
2018-03-04T11:45:47.858Z,0.40
2018-03-04T11:48:15.304Z,0.40
2018-03-04T11:50:42.828Z,0.50
2018-03-04T11:53:10.277Z,0.50
2018-03-04T11:55:38.530Z,0.50
2018-03-04T11:58:06.019Z,0.50
2018-03-04T12:00:33.466Z,0.50
2018-03-04T12:03:01.734Z,0.60
2018-03-04T12:05:29.216Z,0.60
2018-03-04T12:07:56.675Z,0.60
2018-03-04T12:10:24.169Z,0.60
2018-03-04T12:12:52.675Z,0.60
2018-03-04T12:15:20.143Z,0.60
2018-03-04T12:17:47.660Z,0.60
2018-03-04T12:20:15.131Z,0.70
2018-03-04T12:22:42.627Z,0.80
2018-03-04T12:25:10.126Z,0.90
2018-03-04T12:27:37.606Z,1.10
2018-03-04T12:30:05.082Z,1.20
2018-03-04T12:32:32.574Z,1.30
2018-03-04T12:35:00.055Z,1.40
2018-03-04T12:37:27.622Z,1.50
2018-03-04T12:39:55.250Z,1.60
2018-03-04T12:42:23.019Z,1.60
2018-03-04T12:44:51.491Z,1.60
2018-03-04T12:47:19.012Z,1.60
2018-03-04T12:49:47.497Z,1.70
2018-03-04T12:52:14.975Z,1.60
2018-03-04T12:54:59.390Z,1.70
2018-03-04T12:57:26.933Z,1.70
2018-03-04T12:59:54.424Z,1.80
2018-03-04T13:02:21.911Z,1.90
2018-03-04T13:04:50.785Z,2.00
2018-03-04T13:07:19.388Z,2.10
2018-03-04T13:09:49.717Z,2.10
2018-03-04T13:12:17.418Z,2.20
2018-03-04T13:14:52.051Z,2.20
2018-03-04T13:17:36.052Z,2.30
2018-03-04T13:20:03.999Z,2.30
2018-03-04T13:22:32.353Z,2.50
2018-03-04T13:25:01.655Z,2.40
2018-03-04T13:27:29.221Z,2.40
2018-03-04T13:29:57.897Z,2.40
2018-03-04T13:35:22.610Z,2.60
2018-03-04T13:37:50.102Z,2.70
2018-03-04T13:40:17.692Z,2.60
2018-03-04T13:42:45.216Z,2.70
2018-03-04T13:45:13.555Z,2.70
2018-03-04T13:47:41.054Z,2.70
2018-03-04T13:50:08.619Z,2.70
2018-03-04T13:52:36.108Z,2.80
2018-03-04T13:55:03.707Z,2.70
2018-03-04T13:57:31.170Z,2.80
2018-03-04T13:59:58.647Z,2.80
2018-03-04T14:02:26.157Z,2.80
2018-03-04T14:04:53.701Z,2.90
2018-03-04T14:07:21.947Z,3.00
2018-03-04T14:09:50.379Z,3.10
2018-03-04T14:12:18.611Z,3.10
2018-03-04T14:14:46.933Z,3.20
2018-03-04T14:17:14.415Z,3.30
2018-03-04T14:19:41.927Z,3.40
2018-03-04T14:22:09.430Z,3.50
2018-03-04T14:24:36.974Z,3.70
2018-03-04T14:27:05.811Z,3.90
2018-03-04T14:29:33.431Z,3.90
2018-03-04T14:32:01.761Z,3.90
2018-03-04T14:34:29.243Z,3.90
2018-03-04T14:36:56.730Z,4.00
2018-03-04T14:39:24.235Z,3.90
2018-03-04T14:41:51.747Z,4.00
2018-03-04T14:44:21.207Z,4.00
2018-03-04T14:46:50.203Z,4.00
2018-03-04T14:49:18.545Z,3.90
2018-03-04T14:51:46.079Z,3.90
2018-03-04T14:54:13.828Z,3.90
2018-03-04T14:56:41.358Z,3.90
2018-03-04T14:59:09.026Z,3.80
2018-03-04T15:01:36.541Z,3.80
2018-03-04T15:04:04.083Z,3.90
2018-03-04T15:06:31.667Z,3.80
2018-03-04T15:08:59.310Z,3.70
2018-03-04T15:11:26.880Z,3.70
2018-03-04T15:13:54.469Z,3.70
2018-03-04T15:16:21.976Z,3.60
2018-03-04T15:18:53.710Z,3.70
2018-03-04T15:21:23.019Z,3.70
2018-03-04T15:23:50.757Z,3.80
2018-03-04T15:26:26.162Z,3.80
2018-03-04T15:28:54.006Z,3.80
2018-03-04T15:31:21.574Z,3.80
2018-03-04T15:33:49.129Z,3.70
2018-03-04T15:36:17.441Z,3.70
2018-03-04T15:38:44.989Z,3.70
2018-03-04T15:41:12.467Z,3.60
2018-03-04T15:43:40.079Z,3.60
2018-03-04T15:46:08.328Z,3.70
2018-03-04T15:48:35.848Z,3.70
2018-03-04T15:51:03.327Z,3.70
2018-03-04T15:53:30.794Z,3.70
2018-03-04T15:55:58.297Z,3.80
2018-03-04T15:58:25.793Z,3.80
2018-03-04T16:00:53.559Z,3.70
2018-03-04T16:03:22.337Z,3.70
2018-03-04T16:05:50.771Z,3.70
2018-03-04T16:08:18.387Z,3.70
2018-03-04T16:10:48.968Z,3.70
2018-03-04T16:13:19.892Z,3.70
2018-03-04T16:16:01.411Z,3.60
2018-03-04T16:18:29.695Z,3.60
2018-03-04T18:03:22.299Z,3.40
2018-03-04T18:05:57.491Z,3.30
2018-03-04T18:14:56.770Z,3.10
2018-03-04T18:17:35.034Z,3.00
2018-03-04T18:20:03.645Z,2.90
2018-03-04T18:22:32.104Z,2.80
2018-03-04T18:25:01.783Z,2.80
2018-03-04T18:27:30.598Z,2.80
2018-03-04T18:32:53.896Z,2.90
2018-03-04T18:35:24.164Z,2.80
2018-03-04T18:37:54.251Z,2.60
2018-03-04T18:44:56.396Z,2.50
2018-03-04T18:47:25.210Z,2.30
2018-03-04T18:49:52.839Z,2.20
2018-03-04T18:52:20.430Z,2.10
2018-03-04T18:54:48.936Z,2.00
2018-03-04T18:57:17.441Z,1.80
2018-03-04T18:59:45.142Z,1.80
2018-03-04T19:02:12.963Z,1.80
2018-03-04T19:04:40.695Z,1.70
2018-03-04T19:07:08.362Z,1.70
2018-03-04T19:09:37.224Z,1.60
2018-03-04T19:12:05.484Z,1.50
2018-03-04T19:14:33.156Z,1.50
2018-03-04T19:17:00.768Z,1.40
2018-03-04T19:19:28.385Z,1.40
2018-03-04T19:21:57.437Z,1.40
2018-03-04T19:36:25.123Z,1.10
2018-03-04T19:41:51.073Z,1.10
2018-03-04T19:44:21.015Z,1.10
2018-03-04T19:46:51.292Z,1.10
2018-03-04T19:49:22.588Z,1.10
2018-03-04T19:51:54.265Z,1.10
2018-03-04T19:54:22.912Z,1.00
2018-03-04T19:56:52.007Z,1.00
2018-03-04T19:59:22.513Z,0.90
2018-03-04T20:01:52.054Z,0.90
2018-03-04T20:04:20.541Z,0.90
2018-03-04T20:06:53.166Z,0.90
2018-03-04T20:09:22.088Z,0.90
2018-03-04T20:11:52.090Z,0.90
2018-03-04T20:14:20.703Z,1.00
2018-03-04T20:16:48.352Z,1.00
2018-03-04T20:19:16.034Z,1.00
2018-03-04T20:21:46.821Z,1.00
2018-03-04T20:24:15.109Z,1.00
2018-03-04T20:26:47.961Z,1.10
2018-03-04T20:29:15.854Z,1.00
2018-03-04T20:31:45.596Z,1.00
2018-03-04T20:34:29.719Z,1.00
2018-03-04T20:37:09.928Z,1.10
2018-03-04T20:39:40.131Z,1.10
2018-03-04T20:44:51.788Z,1.10
2018-03-04T20:47:20.716Z,1.10
2018-03-04T20:49:49.013Z,1.10
2018-03-04T20:57:59.681Z,1.20
2018-03-04T21:00:29.939Z,1.20
2018-03-04T21:02:57.453Z,1.20
2018-03-04T21:05:25.045Z,1.30
2018-03-04T21:07:53.016Z,1.30
2018-03-04T21:10:21.377Z,1.30
2018-03-04T21:12:48.999Z,1.30
2018-03-04T21:15:16.521Z,1.40
2018-03-04T21:17:44.234Z,1.40
2018-03-04T21:20:12.612Z,1.50
2018-03-04T21:22:40.315Z,1.50
2018-03-04T21:25:07.871Z,1.50
2018-03-04T21:27:35.435Z,1.50
2018-03-04T21:30:03.716Z,1.50
2018-03-04T21:32:31.211Z,1.50
2018-03-04T21:34:59.061Z,1.50
2018-03-04T21:37:26.560Z,1.60
2018-03-04T21:39:54.182Z,1.60
2018-03-04T21:42:21.711Z,1.50
2018-03-04T21:44:49.224Z,1.50
2018-03-04T21:47:16.826Z,1.50
2018-03-04T21:49:44.357Z,1.60
2018-03-04T21:52:11.965Z,1.50
2018-03-04T21:54:39.504Z,1.50
2018-03-04T21:57:07.144Z,1.50
2018-03-04T21:59:34.810Z,1.50
2018-03-04T22:02:02.338Z,1.50
2018-03-04T22:04:29.876Z,1.60
2018-03-04T22:06:57.477Z,1.60
2018-03-04T22:09:25.026Z,1.60
2018-03-04T22:11:52.660Z,1.60
2018-03-04T22:14:20.142Z,1.50
2018-03-04T22:16:47.658Z,1.50
2018-03-04T22:19:15.142Z,1.50
2018-03-04T22:21:42.740Z,1.50
2018-03-04T22:24:10.278Z,1.50
2018-03-04T22:26:37.861Z,1.40
2018-03-04T22:29:05.401Z,1.50
2018-03-04T22:31:33.571Z,1.50
2018-03-04T22:34:01.116Z,1.50
2018-03-04T22:36:28.686Z,1.50
2018-03-04T22:38:56.281Z,1.50
2018-03-04T22:41:24.571Z,1.50
2018-03-04T22:43:52.144Z,1.50
2018-03-04T22:46:19.677Z,1.50
2018-03-04T22:48:47.199Z,1.50
2018-03-04T22:51:14.839Z,1.50
2018-03-04T22:53:42.471Z,1.50
2018-03-04T22:56:10.027Z,1.50
2018-03-04T22:58:43.222Z,1.50
2018-03-04T23:01:10.803Z,1.50
2018-03-04T23:03:38.362Z,1.50
2018-03-04T23:06:06.049Z,1.50
2018-03-04T23:08:33.593Z,1.50
2018-03-04T23:11:01.724Z,1.50
2018-03-04T23:13:29.284Z,1.50
2018-03-04T23:15:56.826Z,1.60
2018-03-04T23:18:24.430Z,1.60
2018-03-04T23:20:51.975Z,1.60
2018-03-04T23:23:19.548Z,1.60
2018-03-04T23:25:47.203Z,1.50
2018-03-04T23:28:15.004Z,1.60
2018-03-04T23:30:42.603Z,1.60
2018-03-04T23:33:10.159Z,1.60
2018-03-04T23:35:37.781Z,1.60
2018-03-04T23:38:05.373Z,1.60
2018-03-04T23:40:33.152Z,1.60
2018-03-04T23:43:00.746Z,1.60
2018-03-04T23:45:28.280Z,1.60
2018-03-04T23:47:55.982Z,1.70
2018-03-04T23:50:23.656Z,1.70
2018-03-04T23:52:51.168Z,1.70
2018-03-04T23:55:18.830Z,1.70
2018-03-04T23:57:46.756Z,1.70
